Terminal Aerodrome Forecast
Issued by NWS

Current Version | Previous Version | Graphics & Text | Print | Product List | Glossary On
Versions: 1 2 3 4 5 6 7 8 9 10 11 12 13 14 15 16
000
FTUS41 KILN 251122
TAFLCK
TAF
KLCK 251122Z 2512/2612 25012G22KT P6SM BKN050
     FM251500 25017G29KT P6SM VCSH OVC025
     FM251900 26017G29KT P6SM BKN025
     FM252200 27012G20KT P6SM BKN050=

USA.gov is the U.S. government's official web portal to all federal, state and local government web resources and services.